createdAt,value
2023-01-22T00:01:23.206Z,22.42
2023-01-22T00:03:51.660Z,22.59
2023-01-22T00:06:21.818Z,22.41
2023-01-22T00:08:52.636Z,22.62
2023-01-22T00:11:21.272Z,22.60
2023-01-22T00:13:49.939Z,22.64
2023-01-22T00:16:21.907Z,22.53
2023-01-22T00:18:50.403Z,22.87
2023-01-22T00:21:21.213Z,23.54
2023-01-22T00:23:51.827Z,23.57
2023-01-22T00:26:19.941Z,23.71
2023-01-22T00:28:48.427Z,23.69
2023-01-22T00:31:18.218Z,23.96
2023-01-22T00:33:47.635Z,24.25
2023-01-22T00:36:19.059Z,24.30
2023-01-22T00:38:48.228Z,24.45
2023-01-22T00:41:18.057Z,24.44
2023-01-22T00:43:47.758Z,24.66
2023-01-22T00:46:17.628Z,24.71
2023-01-22T00:48:45.902Z,25.13
2023-01-22T00:51:14.696Z,25.21
2023-01-22T00:53:47.127Z,25.19
2023-01-22T00:56:15.634Z,25.21
2023-01-22T00:58:44.735Z,25.38
2023-01-22T01:01:17.234Z,25.73
2023-01-22T01:03:45.711Z,25.81
2023-01-22T01:06:17.492Z,25.96
2023-01-22T01:08:48.626Z,26.21
2023-01-22T01:11:20.732Z,26.33
2023-01-22T01:13:51.418Z,26.21
2023-01-22T01:16:25.654Z,26.49
2023-01-22T01:18:57.306Z,26.86
2023-01-22T01:21:25.603Z,26.78
2023-01-22T01:23:56.051Z,26.99
2023-01-22T01:26:25.026Z,27.09
2023-01-22T01:28:53.616Z,27.29
2023-01-22T01:31:23.994Z,27.27
2023-01-22T01:33:55.103Z,27.48
2023-01-22T01:36:46.298Z,27.57
2023-01-22T01:39:13.331Z,27.86
2023-01-22T01:41:41.632Z,28.03
2023-01-22T01:44:14.145Z,28.35
2023-01-22T01:46:52.660Z,28.73
2023-01-22T01:49:51.647Z,29.20
2023-01-22T01:52:21.136Z,29.64
2023-01-22T01:54:55.221Z,29.89
2023-01-22T01:57:28.110Z,29.98
2023-01-22T01:59:57.978Z,30.11
2023-01-22T02:02:26.342Z,30.23
2023-01-22T02:04:58.150Z,30.46
2023-01-22T02:07:26.566Z,30.54
2023-01-22T02:09:55.814Z,30.75
2023-01-22T02:12:24.362Z,30.84
2023-01-22T02:14:54.602Z,30.98
2023-01-22T02:17:23.914Z,30.96
2023-01-22T02:19:52.277Z,31.14
2023-01-22T02:22:30.151Z,31.26
2023-01-22T02:24:58.718Z,31.37
2023-01-22T02:27:26.990Z,31.41
2023-01-22T02:29:55.559Z,31.50
2023-01-22T02:32:25.812Z,31.46
2023-01-22T02:34:54.307Z,31.45
2023-01-22T02:37:22.817Z,31.52
2023-01-22T02:39:51.877Z,31.56
2023-01-22T02:42:20.178Z,31.75
2023-01-22T02:44:49.214Z,31.72
2023-01-22T02:47:20.842Z,31.90
2023-01-22T02:49:49.124Z,31.90
2023-01-22T02:52:17.434Z,31.77
2023-01-22T02:54:45.742Z,31.82
2023-01-22T02:57:14.179Z,32.00
2023-01-22T02:59:42.521Z,32.12
2023-01-22T03:02:10.938Z,32.00
2023-01-22T03:04:39.336Z,32.07
2023-01-22T03:07:07.553Z,32.24
2023-01-22T03:09:35.811Z,31.97
2023-01-22T03:12:04.527Z,31.93
2023-01-22T03:14:32.723Z,32.08
2023-01-22T03:17:01.354Z,32.07
2023-01-22T03:19:31.063Z,32.16
2023-01-22T03:22:01.772Z,32.14
2023-01-22T03:24:30.515Z,32.03
2023-01-22T03:26:58.809Z,32.03
2023-01-22T03:29:27.614Z,32.11
2023-01-22T03:31:56.519Z,32.20
2023-01-22T03:34:26.684Z,32.21
2023-01-22T03:36:54.997Z,32.19
2023-01-22T03:39:23.721Z,32.23
2023-01-22T03:41:52.057Z,32.21
2023-01-22T03:44:20.353Z,32.26
2023-01-22T03:46:49.004Z,32.13
2023-01-22T03:49:17.672Z,32.18
2023-01-22T03:51:47.334Z,32.14
2023-01-22T03:54:19.273Z,32.10
2023-01-22T03:56:47.482Z,32.17
2023-01-22T03:59:16.193Z,32.20
2023-01-22T04:01:44.583Z,32.28
2023-01-22T04:04:12.775Z,32.22
2023-01-22T04:06:41.316Z,32.26
2023-01-22T04:09:09.584Z,32.41
2023-01-22T04:11:37.941Z,32.39
2023-01-22T04:14:06.377Z,32.38
2023-01-22T04:16:34.689Z,32.47
2023-01-22T04:19:03.645Z,32.51
2023-01-22T04:21:31.921Z,32.42
2023-01-22T04:24:00.164Z,32.46
2023-01-22T04:26:29.572Z,32.37
2023-01-22T04:28:58.132Z,32.50
2023-01-22T04:31:26.411Z,32.42
2023-01-22T04:33:59.291Z,32.42
2023-01-22T04:36:29.072Z,32.52
2023-01-22T04:38:58.071Z,32.57
2023-01-22T04:41:26.527Z,32.64
2023-01-22T04:43:54.689Z,32.80
2023-01-22T04:46:23.149Z,32.89
2023-01-22T04:48:54.531Z,32.90
2023-01-22T04:51:23.040Z,33.11
2023-01-22T04:53:51.441Z,33.08
2023-01-22T04:56:19.920Z,33.22
2023-01-22T04:58:48.974Z,33.15
2023-01-22T05:01:17.220Z,33.16
2023-01-22T05:03:45.656Z,33.21
2023-01-22T05:06:14.016Z,33.36
2023-01-22T05:08:43.200Z,33.39
2023-01-22T05:11:11.980Z,33.44
2023-01-22T05:13:43.326Z,33.45
2023-01-22T05:16:12.090Z,33.55
2023-01-22T05:18:41.403Z,33.69
2023-01-22T05:21:10.379Z,33.82
2023-01-22T05:23:38.677Z,33.89
2023-01-22T05:26:07.831Z,33.95
2023-01-22T05:28:36.636Z,34.00
2023-01-22T05:31:05.770Z,34.03
2023-01-22T05:33:37.654Z,34.05
2023-01-22T05:36:06.483Z,34.09
2023-01-22T05:38:34.791Z,34.22
2023-01-22T05:41:03.132Z,34.37
2023-01-22T05:43:31.780Z,34.39
2023-01-22T05:46:01.463Z,34.49
2023-01-22T05:48:31.944Z,34.49
2023-01-22T05:51:10.535Z,34.58
2023-01-22T05:53:39.431Z,34.53
2023-01-22T05:56:08.017Z,34.59
2023-01-22T05:58:36.374Z,34.68
2023-01-22T06:01:05.677Z,34.79
2023-01-22T06:03:34.174Z,34.90
2023-01-22T06:06:08.658Z,35.03
2023-01-22T06:08:36.915Z,35.19
2023-01-22T06:11:10.763Z,35.24
2023-01-22T06:13:42.173Z,35.23
2023-01-22T06:16:12.392Z,35.23
2023-01-22T06:18:40.780Z,35.38
2023-01-22T06:21:09.789Z,35.46
2023-01-22T06:23:38.431Z,35.51
2023-01-22T06:26:06.571Z,35.64
2023-01-22T06:28:34.818Z,35.84
2023-01-22T06:31:04.988Z,35.76
2023-01-22T06:33:34.980Z,35.80
2023-01-22T06:36:03.880Z,35.93
2023-01-22T06:38:33.224Z,35.92
2023-01-22T06:41:01.691Z,35.96
2023-01-22T06:43:31.874Z,36.13
2023-01-22T06:46:00.400Z,36.08
2023-01-22T06:48:28.806Z,36.06
2023-01-22T06:50:58.952Z,36.11
2023-01-22T06:53:28.350Z,36.17
2023-01-22T06:55:59.480Z,36.15
2023-01-22T06:58:29.282Z,36.26
2023-01-22T07:01:24.794Z,36.33
2023-01-22T07:03:54.271Z,36.27
2023-01-22T07:06:22.595Z,36.32
2023-01-22T07:08:50.764Z,36.33
2023-01-22T07:11:19.453Z,36.39
2023-01-22T07:13:47.699Z,36.51
2023-01-22T07:16:19.749Z,36.61
2023-01-22T07:18:49.114Z,36.61
2023-01-22T07:21:17.730Z,36.71
2023-01-22T07:23:46.034Z,36.82
2023-01-22T07:26:14.999Z,36.86
2023-01-22T07:28:45.165Z,36.83
2023-01-22T07:31:14.008Z,36.90
2023-01-22T07:33:54.166Z,36.94
2023-01-22T07:36:23.586Z,36.95
2023-01-22T07:38:51.777Z,36.93
2023-01-22T07:41:26.212Z,36.93
2023-01-22T07:43:55.306Z,36.88
2023-01-22T07:46:24.233Z,36.91
2023-01-22T07:48:53.098Z,36.80
2023-01-22T07:51:22.379Z,35.71
2023-01-22T07:53:53.472Z,33.45
2023-01-22T07:56:21.864Z,30.92
2023-01-22T07:58:51.339Z,28.68
2023-01-22T08:01:20.266Z,27.02
2023-01-22T08:03:50.164Z,25.87
2023-01-22T08:06:19.666Z,25.25
2023-01-22T08:08:48.129Z,24.32
2023-01-22T08:11:20.651Z,23.19
2023-01-22T08:13:51.680Z,21.79
2023-01-22T08:16:20.647Z,20.07
2023-01-22T08:18:54.185Z,18.60
2023-01-22T08:21:31.891Z,17.57
2023-01-22T08:23:59.965Z,16.52
2023-01-22T08:26:28.193Z,16.30
2023-01-22T08:28:58.024Z,16.12
2023-01-22T08:31:28.532Z,15.96
2023-01-22T08:34:01.005Z,15.60
2023-01-22T08:36:32.395Z,14.98
2023-01-22T08:39:00.825Z,14.52
2023-01-22T08:41:29.285Z,13.99
2023-01-22T08:43:57.859Z,13.47
2023-01-22T08:46:26.211Z,12.89
2023-01-22T08:48:55.439Z,12.61
2023-01-22T08:51:24.043Z,12.19
2023-01-22T08:53:57.951Z,11.57
2023-01-22T08:56:29.134Z,11.44
2023-01-22T08:58:58.912Z,11.03
2023-01-22T09:01:27.431Z,10.51
2023-01-22T09:03:56.191Z,10.28
2023-01-22T09:06:26.615Z,10.02
2023-01-22T09:08:54.853Z,9.79
2023-01-22T09:11:23.364Z,9.45
2023-01-22T09:13:51.793Z,9.24
2023-01-22T09:16:20.626Z,8.92
2023-01-22T09:18:49.079Z,8.86
2023-01-22T09:21:17.293Z,8.73
2023-01-22T09:23:45.856Z,8.57
2023-01-22T09:26:14.162Z,8.46
2023-01-22T09:28:42.557Z,8.40
2023-01-22T09:31:14.033Z,8.20
2023-01-22T09:33:43.050Z,8.00
2023-01-22T09:36:14.026Z,7.92
2023-01-22T09:38:43.514Z,7.57
2023-01-22T09:41:22.157Z,7.48
2023-01-22T09:43:52.530Z,7.53
2023-01-22T09:46:44.217Z,7.34
2023-01-22T09:49:17.312Z,7.30
2023-01-22T09:51:55.067Z,7.26
2023-01-22T09:54:24.463Z,7.17
2023-01-22T09:56:55.655Z,7.49
2023-01-22T09:59:48.782Z,7.51
2023-01-22T10:02:39.353Z,7.64
2023-01-22T10:05:14.275Z,7.93
2023-01-22T10:07:49.057Z,8.10
2023-01-22T10:10:20.200Z,8.34
2023-01-22T10:12:57.430Z,8.40
2023-01-22T10:15:26.498Z,7.92
2023-01-22T10:17:57.307Z,7.77
2023-01-22T10:20:26.634Z,7.69
2023-01-22T10:22:59.558Z,7.57
2023-01-22T10:25:28.893Z,7.29
2023-01-22T10:28:00.951Z,6.97
2023-01-22T10:30:29.198Z,7.00
2023-01-22T10:33:07.579Z,6.96
2023-01-22T10:35:50.584Z,6.63
2023-01-22T10:38:28.207Z,6.69
2023-01-22T10:40:59.527Z,6.58
2023-01-22T10:43:36.276Z,6.44
2023-01-22T10:46:23.816Z,6.36
2023-01-22T10:49:04.083Z,6.30
2023-01-22T10:51:38.573Z,6.08
2023-01-22T10:54:39.766Z,6.22
2023-01-22T10:57:20.048Z,6.14
2023-01-22T11:00:14.586Z,5.86
2023-01-22T11:02:46.277Z,6.06
2023-01-22T11:05:18.755Z,6.05
2023-01-22T11:07:53.944Z,6.04
2023-01-22T11:10:35.939Z,6.00
2023-01-22T11:13:34.044Z,6.01
2023-01-22T11:16:15.516Z,5.89
2023-01-22T11:18:46.850Z,5.92
2023-01-22T11:21:37.779Z,5.82
2023-01-22T11:24:13.134Z,5.78
2023-01-22T11:27:18.619Z,5.94
2023-01-22T11:30:25.161Z,5.83
2023-01-22T11:33:33.427Z,5.75
2023-01-22T11:36:34.153Z,6.03
2023-01-22T11:39:30.620Z,6.37
2023-01-22T11:42:20.809Z,6.68
2023-01-22T11:45:24.196Z,6.93
2023-01-22T11:48:13.293Z,7.09
2023-01-22T11:50:56.511Z,7.47
2023-01-22T11:53:42.891Z,8.08
2023-01-22T11:56:31.555Z,8.21
2023-01-22T11:59:18.081Z,8.87
2023-01-22T12:01:53.374Z,9.30
2023-01-22T12:05:08.360Z,9.57
2023-01-22T12:07:56.594Z,10.45
2023-01-22T12:10:52.942Z,11.32
2023-01-22T12:14:11.063Z,12.18
2023-01-22T12:17:06.816Z,13.00
2023-01-22T12:20:20.476Z,13.37
2023-01-22T12:23:22.127Z,13.88
2023-01-22T12:25:53.179Z,14.37
2023-01-22T12:28:32.621Z,14.61
2023-01-22T12:31:10.012Z,15.48
2023-01-22T12:33:41.395Z,15.64
2023-01-22T12:36:15.054Z,15.88
2023-01-22T12:39:10.045Z,16.02
2023-01-22T12:41:56.841Z,16.78
2023-01-22T12:44:57.168Z,17.24
2023-01-22T12:48:02.954Z,17.42
2023-01-22T12:50:31.554Z,19.14
2023-01-22T12:53:03.112Z,19.36
2023-01-22T12:55:39.517Z,19.97
2023-01-22T12:58:23.808Z,20.39
2023-01-22T13:01:22.169Z,20.53
2023-01-22T13:04:05.980Z,21.81
2023-01-22T13:06:39.430Z,21.64
2023-01-22T13:09:25.099Z,22.05
2023-01-22T13:11:53.735Z,22.31
2023-01-22T13:14:25.822Z,22.55
2023-01-22T13:17:00.459Z,22.46
2023-01-22T13:19:36.252Z,22.20
2023-01-22T13:22:06.919Z,22.05
2023-01-22T13:24:36.132Z,21.81
2023-01-22T13:27:04.455Z,21.72
2023-01-22T13:29:38.505Z,21.46
2023-01-22T13:32:18.274Z,22.02
2023-01-22T13:34:46.802Z,21.94
2023-01-22T13:37:26.389Z,21.38
2023-01-22T13:39:55.092Z,20.30
2023-01-22T13:42:25.038Z,20.33
2023-01-22T13:44:53.628Z,20.37
2023-01-22T13:47:36.380Z,20.32
2023-01-22T13:50:06.863Z,21.43
2023-01-22T13:52:35.412Z,23.62
2023-01-22T13:55:16.963Z,23.53
2023-01-22T13:57:48.043Z,23.58
2023-01-22T14:00:28.159Z,23.65
2023-01-22T14:59:53.439Z,16.47
2023-01-22T15:02:22.337Z,17.28
2023-01-22T15:04:50.561Z,18.84
2023-01-22T15:07:18.844Z,20.35
2023-01-22T15:09:46.971Z,21.04
2023-01-22T15:12:15.175Z,22.05
2023-01-22T15:14:43.493Z,22.27
2023-01-22T15:17:11.765Z,22.56
2023-01-22T15:19:41.638Z,24.02
2023-01-22T15:22:10.474Z,24.73
2023-01-22T15:24:38.647Z,25.36
2023-01-22T15:27:07.969Z,25.54
2023-01-22T15:29:36.213Z,25.85
2023-01-22T15:32:04.911Z,27.06
2023-01-22T15:34:33.021Z,27.36
2023-01-22T15:37:03.766Z,27.81
2023-01-22T15:39:31.959Z,27.09
2023-01-22T15:42:00.167Z,27.17
2023-01-22T15:44:29.941Z,27.24
2023-01-22T15:46:58.091Z,27.02
2023-01-22T15:49:27.533Z,26.91
2023-01-22T15:51:56.019Z,26.73
2023-01-22T15:54:25.790Z,26.88
2023-01-22T15:56:55.062Z,27.29
2023-01-22T15:59:24.741Z,27.65
2023-01-22T16:01:53.569Z,27.72
2023-01-22T16:04:21.960Z,27.77
2023-01-22T16:06:50.186Z,27.82
2023-01-22T16:09:18.407Z,28.03
2023-01-22T16:11:46.752Z,28.03
2023-01-22T16:14:14.997Z,28.01
2023-01-22T16:16:43.740Z,27.71
2023-01-22T16:19:12.247Z,28.15
2023-01-22T16:21:41.242Z,27.95
2023-01-22T16:24:10.304Z,27.82
2023-01-22T16:26:38.532Z,28.19
2023-01-22T16:29:07.366Z,28.40
2023-01-22T16:31:36.741Z,29.15
2023-01-22T16:34:15.224Z,29.51
2023-01-22T16:36:45.156Z,29.78
2023-01-22T16:39:21.614Z,29.98
2023-01-22T16:41:51.765Z,30.25
2023-01-22T16:44:22.908Z,30.20
2023-01-22T16:46:51.146Z,30.54
2023-01-22T16:49:22.679Z,30.78
2023-01-22T16:51:57.042Z,31.27
2023-01-22T16:54:32.130Z,31.72
2023-01-22T16:57:02.973Z,31.78
2023-01-22T16:59:32.837Z,31.50
2023-01-22T17:02:02.788Z,31.44
2023-01-22T17:04:31.293Z,31.69
2023-01-22T17:07:00.663Z,31.71
2023-01-22T17:09:34.705Z,31.43
2023-01-22T17:12:05.879Z,31.46
2023-01-22T17:14:37.387Z,31.44
2023-01-22T17:17:07.266Z,32.32
2023-01-22T17:19:36.409Z,32.66
2023-01-22T17:22:04.870Z,32.58
2023-01-22T17:24:33.219Z,33.03
2023-01-22T17:27:02.541Z,33.10
2023-01-22T17:29:32.381Z,32.80
2023-01-22T17:32:01.935Z,32.81
2023-01-22T17:34:30.292Z,32.71
2023-01-22T17:36:58.796Z,33.31
2023-01-22T17:39:27.108Z,33.71
2023-01-22T17:41:55.389Z,33.43
2023-01-22T17:44:26.621Z,33.33
2023-01-22T17:46:55.649Z,33.49
2023-01-22T17:49:26.439Z,33.72
2023-01-22T17:51:54.663Z,33.53
2023-01-22T17:54:22.815Z,33.72
2023-01-22T17:56:51.555Z,33.88
2023-01-22T17:59:22.011Z,34.00
2023-01-22T18:01:51.153Z,33.66
2023-01-22T18:04:19.408Z,33.62
2023-01-22T18:06:48.542Z,34.40
2023-01-22T18:09:17.067Z,34.18
2023-01-22T18:11:45.239Z,34.69
2023-01-22T18:14:16.675Z,34.93
2023-01-22T18:16:45.412Z,34.89
2023-01-22T18:19:14.852Z,34.65
2023-01-22T18:21:42.998Z,34.72
2023-01-22T18:24:12.352Z,34.98
2023-01-22T18:26:40.820Z,35.18
2023-01-22T18:29:10.407Z,35.52
2023-01-22T18:31:39.045Z,35.60
2023-01-22T18:34:10.591Z,35.40
2023-01-22T18:36:40.483Z,35.94
2023-01-22T18:39:17.215Z,36.00
2023-01-22T18:41:47.600Z,36.19
2023-01-22T18:44:16.306Z,36.05
2023-01-22T18:46:44.988Z,36.26
2023-01-22T18:49:17.929Z,36.25
2023-01-22T18:51:47.474Z,36.43
2023-01-22T18:54:16.950Z,36.53
2023-01-22T18:56:46.542Z,36.46
2023-01-22T18:59:14.852Z,36.46
2023-01-22T19:01:43.873Z,36.50
2023-01-22T19:04:12.473Z,36.65
2023-01-22T19:06:41.926Z,36.52
2023-01-22T19:09:12.674Z,36.76
2023-01-22T19:11:46.667Z,36.83
2023-01-22T19:14:17.935Z,36.73
2023-01-22T19:16:51.596Z,36.91
2023-01-22T19:19:21.879Z,36.89
2023-01-22T19:21:55.649Z,36.90
2023-01-22T19:24:25.205Z,37.14
2023-01-22T19:26:53.850Z,37.24
2023-01-22T19:29:23.570Z,37.38
2023-01-22T19:31:53.158Z,37.17
2023-01-22T19:34:23.894Z,37.04
2023-01-22T19:36:56.396Z,37.20
2023-01-22T19:39:26.143Z,37.08
2023-01-22T19:41:55.745Z,37.29
2023-01-22T19:44:24.180Z,37.18
2023-01-22T19:46:52.853Z,37.31
2023-01-22T19:49:21.484Z,37.26
2023-01-22T19:51:50.202Z,37.40
2023-01-22T19:54:18.759Z,37.19
2023-01-22T19:56:46.844Z,37.21
2023-01-22T19:59:18.083Z,37.16
2023-01-22T20:01:49.549Z,37.07
2023-01-22T20:04:21.906Z,36.95
2023-01-22T20:06:54.675Z,36.94
2023-01-22T20:09:23.657Z,36.90
2023-01-22T20:11:53.681Z,36.81
2023-01-22T20:14:24.530Z,36.99
2023-01-22T20:16:52.950Z,37.08
2023-01-22T20:19:21.716Z,37.10
2023-01-22T20:21:50.084Z,37.23
2023-01-22T20:24:18.339Z,37.15
2023-01-22T20:26:46.666Z,37.26
2023-01-22T20:29:14.878Z,37.28
2023-01-22T20:31:43.105Z,37.36
2023-01-22T20:34:11.431Z,37.40
2023-01-22T20:36:39.885Z,37.49
2023-01-22T20:39:08.114Z,37.57
2023-01-22T20:41:36.287Z,37.51
2023-01-22T20:44:05.497Z,37.70
2023-01-22T20:46:33.733Z,37.54
2023-01-22T20:49:01.898Z,37.84
2023-01-22T20:51:30.148Z,37.79
2023-01-22T20:53:58.612Z,37.81
2023-01-22T20:56:30.524Z,37.82
2023-01-22T20:59:09.689Z,37.73
2023-01-22T21:01:38.433Z,37.66
2023-01-22T21:04:07.499Z,37.71
2023-01-22T21:06:36.976Z,37.66
2023-01-22T21:09:06.713Z,37.65
2023-01-22T21:11:36.882Z,37.75
2023-01-22T21:14:06.833Z,37.68
2023-01-22T21:16:37.921Z,37.79
2023-01-22T21:19:17.005Z,37.80
2023-01-22T21:21:46.439Z,37.85
2023-01-22T21:24:14.635Z,37.83
2023-01-22T21:26:43.819Z,37.82
2023-01-22T21:29:16.472Z,37.79
2023-01-22T21:31:45.778Z,37.92
2023-01-22T21:34:14.203Z,37.87
2023-01-22T21:36:45.947Z,37.72
2023-01-22T21:39:16.941Z,37.62
2023-01-22T21:41:46.790Z,37.69
2023-01-22T21:44:18.158Z,37.61
2023-01-22T21:46:47.078Z,37.69
2023-01-22T21:49:18.316Z,37.69
2023-01-22T21:51:58.647Z,37.69
2023-01-22T21:54:35.535Z,37.57
2023-01-22T21:57:05.975Z,37.40
2023-01-22T21:59:34.604Z,37.52
2023-01-22T22:02:03.331Z,37.53
2023-01-22T22:04:34.417Z,37.52
2023-01-22T22:07:02.592Z,37.48
2023-01-22T22:09:30.751Z,37.48
2023-01-22T22:12:01.335Z,37.59
2023-01-22T22:14:30.395Z,37.59
2023-01-22T22:16:58.693Z,37.68
2023-01-22T22:19:27.760Z,37.84
2023-01-22T22:21:55.998Z,37.73
2023-01-22T22:24:24.270Z,37.86
2023-01-22T22:26:52.989Z,37.81
2023-01-22T22:29:21.240Z,38.03
2023-01-22T22:31:49.459Z,38.02
2023-01-22T22:34:17.820Z,38.19
2023-01-22T22:36:45.882Z,38.27
2023-01-22T22:39:14.092Z,38.18
2023-01-22T22:41:42.654Z,38.32
2023-01-22T22:44:10.807Z,38.40
2023-01-22T22:46:39.919Z,38.40
2023-01-22T22:49:12.353Z,38.48
2023-01-22T22:51:42.413Z,38.49
2023-01-22T22:54:15.150Z,38.51
2023-01-22T22:56:44.909Z,38.63
2023-01-22T22:59:14.459Z,38.65
2023-01-22T23:01:42.804Z,38.76
2023-01-22T23:04:12.819Z,39.04
2023-01-22T23:06:44.830Z,38.81
2023-01-22T23:09:16.492Z,38.63
2023-01-22T23:11:44.797Z,38.65
2023-01-22T23:14:12.954Z,38.60
2023-01-22T23:16:43.299Z,38.31
2023-01-22T23:19:29.962Z,38.26
2023-01-22T23:22:00.405Z,38.25
2023-01-22T23:24:28.979Z,38.19
2023-01-22T23:26:57.146Z,38.21
2023-01-22T23:29:25.969Z,38.13
2023-01-22T23:31:54.457Z,38.11
2023-01-22T23:34:23.221Z,38.07
2023-01-22T23:36:51.888Z,38.05
2023-01-22T23:39:21.153Z,37.87
2023-01-22T23:41:49.634Z,37.77
2023-01-22T23:44:17.900Z,37.70
2023-01-22T23:46:46.204Z,37.63
2023-01-22T23:49:14.463Z,37.38
2023-01-22T23:51:42.602Z,37.31
2023-01-22T23:54:10.773Z,37.33
2023-01-22T23:56:39.355Z,37.19
2023-01-22T23:59:07.663Z,37.09
